createdAt,value
2018-03-03T00:01:14.491Z,99.90
2018-03-03T00:03:42.804Z,99.90
2018-03-03T00:06:10.397Z,99.90
2018-03-03T00:08:38.002Z,99.90
2018-03-03T00:11:06.358Z,99.90
2018-03-03T00:13:33.934Z,99.90
2018-03-03T00:16:01.958Z,99.90
2018-03-03T00:18:29.518Z,99.90
2018-03-03T00:20:57.157Z,99.90
2018-03-03T00:23:24.760Z,99.90
2018-03-03T00:25:52.335Z,99.90
2018-03-03T00:28:20.663Z,99.90
2018-03-03T00:30:48.546Z,99.90
2018-03-03T00:33:16.125Z,99.90
2018-03-03T00:35:43.699Z,99.90
2018-03-03T00:38:13.073Z,99.90
2018-03-03T00:40:40.652Z,99.90
2018-03-03T00:43:09.062Z,99.90
2018-03-03T00:45:36.653Z,99.90
2018-03-03T00:48:04.452Z,99.90
2018-03-03T00:50:32.795Z,99.90
2018-03-03T00:53:00.441Z,99.90
2018-03-03T00:55:28.007Z,99.90
2018-03-03T00:57:55.624Z,99.90
2018-03-03T01:00:23.984Z,99.90
2018-03-03T01:02:52.305Z,99.90
2018-03-03T01:05:19.875Z,99.90
2018-03-03T01:07:47.893Z,99.90
2018-03-03T01:10:16.237Z,99.90
2018-03-03T01:12:43.850Z,99.90
2018-03-03T01:15:11.452Z,99.90
2018-03-03T01:17:39.022Z,99.90
2018-03-03T01:20:06.601Z,99.90
2018-03-03T01:22:34.999Z,99.90
2018-03-03T01:25:02.628Z,99.90
2018-03-03T01:27:30.243Z,99.90
2018-03-03T01:29:57.806Z,99.90
2018-03-03T01:32:25.549Z,99.90
2018-03-03T01:34:53.225Z,99.90
2018-03-03T01:37:21.733Z,99.90
2018-03-03T01:39:49.483Z,99.90
2018-03-03T01:42:17.025Z,99.90
2018-03-03T01:44:44.605Z,99.90
2018-03-03T01:47:12.205Z,99.90
2018-03-03T01:49:40.539Z,99.90
2018-03-03T01:52:08.418Z,99.90
2018-03-03T01:54:36.472Z,99.90
2018-03-03T01:57:04.039Z,99.90
2018-03-03T02:01:59.503Z,99.90
2018-03-03T02:04:27.854Z,99.90
2018-03-03T02:06:55.440Z,99.90
2018-03-03T02:09:24.077Z,99.90
2018-03-03T02:11:51.660Z,99.90
2018-03-03T02:14:20.769Z,99.90
2018-03-03T02:16:48.380Z,99.90
2018-03-03T02:19:15.953Z,99.90
2018-03-03T02:21:43.529Z,99.90
2018-03-03T02:24:11.126Z,99.90
2018-03-03T02:26:39.472Z,99.90
2018-03-03T02:29:07.057Z,99.90
2018-03-03T02:31:35.466Z,99.90
2018-03-03T02:34:03.051Z,99.90
2018-03-03T02:36:30.726Z,99.90
2018-03-03T02:38:58.338Z,99.90
2018-03-03T02:41:25.927Z,99.90
2018-03-03T02:43:53.508Z,99.90
2018-03-03T02:46:21.981Z,99.90
2018-03-03T02:48:49.555Z,99.90
2018-03-03T02:51:17.252Z,99.90
2018-03-03T02:53:44.884Z,99.90
2018-03-03T02:56:13.225Z,99.90
2018-03-03T02:58:40.776Z,99.90
2018-03-03T03:01:08.760Z,99.90
2018-03-03T03:03:36.342Z,99.90
2018-03-03T03:06:04.701Z,99.90
2018-03-03T03:08:32.326Z,99.90
2018-03-03T03:10:59.993Z,99.90
2018-03-03T03:13:27.563Z,99.90
2018-03-03T03:15:55.189Z,99.90
2018-03-03T03:18:22.779Z,99.90
2018-03-03T03:20:50.349Z,99.90
2018-03-03T03:23:17.960Z,99.90
2018-03-03T03:25:45.610Z,99.90
2018-03-03T03:28:13.940Z,99.90
2018-03-03T03:30:42.238Z,99.90
2018-03-03T03:33:10.570Z,99.90
2018-03-03T03:35:38.172Z,99.90
2018-03-03T03:38:05.777Z,99.90
2018-03-03T03:40:33.346Z,99.90
2018-03-03T03:43:00.913Z,99.90
2018-03-03T03:45:28.514Z,99.90
2018-03-03T03:47:56.093Z,99.90
2018-03-03T03:50:24.509Z,99.90
2018-03-03T03:52:52.125Z,99.90
2018-03-03T03:55:20.469Z,99.90
2018-03-03T03:57:48.060Z,99.90
2018-03-03T04:00:16.723Z,99.90
2018-03-03T04:02:44.303Z,99.90
2018-03-03T04:05:12.666Z,99.90
2018-03-03T04:07:40.292Z,99.90
2018-03-03T04:10:07.870Z,99.90
2018-03-03T04:12:35.435Z,99.90
2018-03-03T04:15:04.551Z,99.90
2018-03-03T04:17:32.919Z,99.90
2018-03-03T04:20:00.496Z,99.90
2018-03-03T04:22:29.115Z,99.90
2018-03-03T04:24:56.746Z,99.90
2018-03-03T04:27:25.067Z,99.90
2018-03-03T04:29:52.669Z,99.90
2018-03-03T04:32:21.156Z,99.90
2018-03-03T04:34:49.498Z,99.90
2018-03-03T04:37:17.468Z,99.90
2018-03-03T04:39:45.047Z,99.90
2018-03-03T04:42:13.393Z,99.90
2018-03-03T04:44:41.277Z,99.90
2018-03-03T04:47:09.779Z,99.90
2018-03-03T04:49:37.353Z,99.90
2018-03-03T04:52:04.956Z,99.90
2018-03-03T04:54:32.536Z,99.90
2018-03-03T04:57:00.120Z,99.90
2018-03-03T04:59:28.508Z,99.90
2018-03-03T05:02:06.086Z,99.90
2018-03-03T05:04:34.457Z,99.90
2018-03-03T05:07:07.859Z,99.90
2018-03-03T05:09:36.246Z,99.90
2018-03-03T05:12:04.598Z,99.90
2018-03-03T05:14:48.968Z,99.90
2018-03-03T05:17:34.281Z,99.90
2018-03-03T05:20:07.660Z,99.90
2018-03-03T05:22:51.857Z,99.90
2018-03-03T05:25:26.633Z,99.90
2018-03-03T05:28:12.995Z,99.90
2018-03-03T05:30:46.083Z,99.90
2018-03-03T05:33:29.289Z,99.90
2018-03-03T05:36:12.110Z,99.90
2018-03-03T05:38:42.547Z,99.90
2018-03-03T05:41:15.928Z,99.90
2018-03-03T05:43:49.081Z,99.90
2018-03-03T05:46:24.051Z,99.90
2018-03-03T05:49:07.209Z,99.90
2018-03-03T05:51:39.158Z,99.90
2018-03-03T05:54:12.422Z,99.90
2018-03-03T05:56:57.897Z,99.90
2018-03-03T05:59:31.061Z,99.90
2018-03-03T06:02:04.527Z,99.90
2018-03-03T06:04:37.406Z,99.90
2018-03-03T06:07:23.512Z,99.90
2018-03-03T06:09:54.283Z,99.90
2018-03-03T06:12:21.894Z,99.90
2018-03-03T06:14:50.258Z,99.90
2018-03-03T06:17:17.834Z,99.90
2018-03-03T06:19:46.162Z,99.90
2018-03-03T06:22:13.798Z,99.90
2018-03-03T06:24:41.381Z,99.90
2018-03-03T06:27:08.961Z,99.90
2018-03-03T06:29:37.305Z,99.90
2018-03-03T06:32:04.868Z,99.90
2018-03-03T06:34:32.451Z,99.90
2018-03-03T06:37:00.069Z,99.90
2018-03-03T06:39:27.642Z,99.90
2018-03-03T06:41:55.224Z,99.90
2018-03-03T06:44:22.822Z,99.90
2018-03-03T06:46:51.199Z,99.90
2018-03-03T06:49:19.554Z,99.90
2018-03-03T06:51:47.141Z,99.90
2018-03-03T06:54:15.171Z,99.90
2018-03-03T06:56:42.742Z,99.90
2018-03-03T06:59:10.321Z,99.90
2018-03-03T07:01:38.761Z,99.90
2018-03-03T07:04:06.340Z,99.90
2018-03-03T07:06:33.922Z,99.90
2018-03-03T07:09:02.536Z,99.90
2018-03-03T07:11:30.104Z,99.90
2018-03-03T07:13:57.693Z,99.90
2018-03-03T07:16:25.566Z,99.90
2018-03-03T07:18:53.154Z,99.90
2018-03-03T07:21:20.734Z,99.90
2018-03-03T07:23:48.356Z,99.90
2018-03-03T07:26:16.736Z,99.90
2018-03-03T07:28:45.153Z,99.90
2018-03-03T07:31:12.698Z,99.90
2018-03-03T07:33:40.268Z,99.90
2018-03-03T07:36:08.176Z,99.90
2018-03-03T07:38:35.770Z,99.90
2018-03-03T07:41:04.117Z,99.90
2018-03-03T07:43:32.079Z,99.90
2018-03-03T07:45:59.648Z,99.90
2018-03-03T07:48:27.231Z,99.90
2018-03-03T07:50:54.860Z,99.90
2018-03-03T07:53:22.437Z,99.90
2018-03-03T07:55:50.797Z,99.90
2018-03-03T07:58:30.404Z,99.90
2018-03-03T08:00:58.256Z,99.90
2018-03-03T08:03:25.820Z,99.90
2018-03-03T08:05:53.430Z,99.90
2018-03-03T08:08:21.808Z,99.90
2018-03-03T08:10:50.171Z,99.90
2018-03-03T08:13:17.777Z,99.90
2018-03-03T08:15:45.417Z,99.90
2018-03-03T08:18:13.749Z,99.90
2018-03-03T08:20:41.313Z,99.90
2018-03-03T08:23:08.923Z,99.90
2018-03-03T08:25:36.539Z,99.90
2018-03-03T08:28:04.113Z,99.90
2018-03-03T08:30:31.733Z,99.90
2018-03-03T08:32:59.384Z,99.90
2018-03-03T08:35:26.953Z,99.90
2018-03-03T08:37:54.552Z,99.90
2018-03-03T08:40:22.172Z,99.90
2018-03-03T08:42:49.758Z,99.90
2018-03-03T08:45:17.725Z,99.90
2018-03-03T08:47:45.299Z,99.90
2018-03-03T08:50:12.892Z,99.90
2018-03-03T08:52:40.511Z,99.90
2018-03-03T08:55:08.851Z,99.90
2018-03-03T08:57:36.449Z,99.90
2018-03-03T09:00:04.006Z,99.90
2018-03-03T09:02:31.573Z,99.90
2018-03-03T09:04:59.956Z,99.90
2018-03-03T09:07:28.293Z,99.90
2018-03-03T09:09:55.911Z,99.90
2018-03-03T09:12:24.251Z,99.90
2018-03-03T09:14:51.845Z,99.90
2018-03-03T09:17:20.220Z,99.90
2018-03-03T09:19:48.599Z,99.90
2018-03-03T09:22:16.986Z,99.90
2018-03-03T09:24:44.570Z,99.90
2018-03-03T09:27:12.168Z,99.90
2018-03-03T09:29:39.764Z,99.90
2018-03-03T09:32:07.330Z,99.90
2018-03-03T09:34:35.863Z,99.90
2018-03-03T09:37:04.968Z,99.90
2018-03-03T09:39:33.311Z,99.90
2018-03-03T09:42:00.958Z,99.90
2018-03-03T09:44:28.613Z,99.90
2018-03-03T09:46:56.218Z,99.90
2018-03-03T09:49:24.644Z,99.90
2018-03-03T09:51:52.213Z,99.90
2018-03-03T09:54:19.783Z,99.90
2018-03-03T09:56:47.375Z,99.90
2018-03-03T09:59:14.953Z,99.90
2018-03-03T10:01:43.574Z,99.90
2018-03-03T10:04:11.688Z,99.90
2018-03-03T10:06:40.049Z,99.90
2018-03-03T10:09:07.644Z,99.90
2018-03-03T10:11:36.000Z,99.90
2018-03-03T10:14:03.573Z,99.90
2018-03-03T10:16:32.065Z,99.90
2018-03-03T10:19:00.435Z,99.40
2018-03-03T10:21:28.797Z,99.40
2018-03-03T10:23:56.358Z,99.30
2018-03-03T10:26:23.966Z,99.30
2018-03-03T10:28:51.581Z,99.00
2018-03-03T10:31:20.420Z,98.20
2018-03-03T10:33:48.429Z,98.00
2018-03-03T10:36:16.777Z,96.50
2018-03-03T10:38:44.344Z,96.30
2018-03-03T10:41:11.939Z,95.80
2018-03-03T10:43:40.281Z,95.30
2018-03-03T10:46:08.153Z,95.20
2018-03-03T10:48:35.723Z,95.20
2018-03-03T10:51:03.311Z,96.10
2018-03-03T10:53:31.708Z,94.30
2018-03-03T10:55:59.298Z,94.30
2018-03-03T10:58:27.326Z,93.90
2018-03-03T11:00:54.917Z,92.70
2018-03-03T11:03:22.595Z,93.10
2018-03-03T11:05:50.228Z,91.50
2018-03-03T11:08:17.826Z,90.60
2018-03-03T11:10:45.439Z,90.50
2018-03-03T11:13:13.046Z,88.10
2018-03-03T11:15:40.633Z,88.10
2018-03-03T11:18:08.981Z,86.00
2018-03-03T11:20:36.556Z,86.00
2018-03-03T11:23:04.964Z,85.70
2018-03-03T11:25:32.555Z,85.70
2018-03-03T11:28:00.149Z,85.30
2018-03-03T11:30:27.755Z,83.80
2018-03-03T11:32:55.351Z,83.70
2018-03-03T11:35:23.217Z,82.60
2018-03-03T11:37:50.810Z,81.00
2018-03-03T11:40:18.544Z,80.70
2018-03-03T11:42:46.145Z,80.40
2018-03-03T11:45:13.720Z,78.80
2018-03-03T11:47:41.319Z,78.90
2018-03-03T11:50:08.896Z,77.40
2018-03-03T11:52:37.246Z,76.90
2018-03-03T11:55:04.873Z,76.20
2018-03-03T11:57:33.476Z,74.40
2018-03-03T12:00:01.903Z,72.70
2018-03-03T12:02:31.366Z,72.10
2018-03-03T12:04:58.990Z,72.10
2018-03-03T12:07:26.824Z,73.40
2018-03-03T12:09:55.158Z,72.10
2018-03-03T12:12:22.826Z,71.50
2018-03-03T12:14:50.434Z,71.10
2018-03-03T12:17:18.762Z,71.20
2018-03-03T12:19:46.738Z,71.20
2018-03-03T12:22:14.544Z,71.20
2018-03-03T12:24:42.876Z,70.30
2018-03-03T12:27:10.578Z,69.70
2018-03-03T12:29:38.933Z,65.50
2018-03-03T12:32:06.716Z,65.50
2018-03-03T12:34:35.099Z,63.40
2018-03-03T12:37:03.536Z,61.90
2018-03-03T12:39:31.090Z,61.90
2018-03-03T12:41:58.653Z,59.50
2018-03-03T12:44:26.282Z,58.60
2018-03-03T12:46:53.852Z,58.80
2018-03-03T12:49:21.586Z,58.10
2018-03-03T12:51:49.179Z,56.70
2018-03-03T12:54:16.747Z,56.20
2018-03-03T12:56:44.510Z,55.70
2018-03-03T12:59:12.066Z,55.10
2018-03-03T13:01:39.707Z,54.30
2018-03-03T13:04:07.988Z,54.20
2018-03-03T13:06:35.565Z,55.80
2018-03-03T13:09:03.693Z,56.90
2018-03-03T13:11:31.266Z,57.90
2018-03-03T13:13:58.852Z,58.70
2018-03-03T13:16:26.459Z,59.70
2018-03-03T13:18:54.863Z,60.60
2018-03-03T13:21:22.505Z,60.40
2018-03-03T13:23:50.102Z,61.50
2018-03-03T13:26:17.678Z,61.90
2018-03-03T13:28:45.275Z,61.60
2018-03-03T13:31:13.647Z,59.80
2018-03-03T13:33:42.014Z,59.80
2018-03-03T13:36:10.355Z,59.80
2018-03-03T13:38:37.964Z,59.90
2018-03-03T13:41:06.338Z,59.30
2018-03-03T13:43:34.693Z,59.40
2018-03-03T13:46:03.789Z,59.70
2018-03-03T13:48:32.926Z,60.70
2018-03-03T13:51:00.491Z,60.00
2018-03-03T13:53:28.199Z,59.60
2018-03-03T13:55:56.441Z,60.90
2018-03-03T13:58:24.057Z,60.80
2018-03-03T14:00:52.396Z,62.40
2018-03-03T14:03:19.950Z,61.60
2018-03-03T14:05:47.546Z,62.00
2018-03-03T14:08:15.877Z,63.50
2018-03-03T14:10:43.495Z,63.40
2018-03-03T14:13:11.819Z,63.20
2018-03-03T14:15:39.425Z,63.10
2018-03-03T14:18:07.768Z,63.30
2018-03-03T14:20:35.358Z,63.20
2018-03-03T14:23:03.692Z,62.70
2018-03-03T14:25:31.299Z,62.70
2018-03-03T14:27:59.629Z,62.50
2018-03-03T14:30:27.516Z,62.40
2018-03-03T14:32:55.084Z,62.50
2018-03-03T14:35:23.416Z,63.30
2018-03-03T14:37:51.025Z,63.00
2018-03-03T14:40:19.404Z,63.20
2018-03-03T14:42:47.730Z,62.90
2018-03-03T14:45:15.300Z,62.80
2018-03-03T14:47:42.916Z,62.90
2018-03-03T14:50:11.249Z,62.60
2018-03-03T14:52:38.980Z,62.40
2018-03-03T14:55:06.577Z,62.10
2018-03-03T14:57:34.151Z,61.50
2018-03-03T15:00:02.491Z,61.90
2018-03-03T15:02:30.373Z,61.60
2018-03-03T15:04:57.950Z,61.90
2018-03-03T15:07:25.514Z,61.90
2018-03-03T15:09:53.459Z,62.20
2018-03-03T15:12:21.017Z,62.70
2018-03-03T15:14:48.592Z,62.80
2018-03-03T15:17:16.201Z,63.40
2018-03-03T15:19:43.767Z,63.90
2018-03-03T15:22:11.344Z,65.40
2018-03-03T15:24:39.223Z,65.50
2018-03-03T15:27:06.797Z,66.40
2018-03-03T15:29:35.118Z,67.90
2018-03-03T15:32:02.714Z,67.80
2018-03-03T15:34:30.328Z,67.60
2018-03-03T15:36:57.912Z,68.10
2018-03-03T15:39:25.908Z,68.10
2018-03-03T15:41:54.164Z,68.00
2018-03-03T15:44:21.727Z,68.00
2018-03-03T15:46:49.327Z,67.80
2018-03-03T15:49:17.682Z,67.30
2018-03-03T15:51:45.274Z,67.30
2018-03-03T15:54:12.860Z,67.00
2018-03-03T15:56:40.434Z,66.60
2018-03-03T15:59:08.076Z,65.90
2018-03-03T16:01:35.674Z,65.30
2018-03-03T16:04:04.007Z,65.90
2018-03-03T16:06:31.577Z,65.80
2018-03-03T16:08:59.178Z,66.40
2018-03-03T16:11:26.779Z,66.30
2018-03-03T16:13:54.364Z,67.30
2018-03-03T16:16:22.024Z,68.00
2018-03-03T16:18:49.599Z,68.80
2018-03-03T16:21:17.198Z,70.00
2018-03-03T16:23:45.684Z,72.80
2018-03-03T16:26:13.257Z,72.60
2018-03-03T16:28:40.815Z,74.00
2018-03-03T16:31:08.389Z,75.80
2018-03-03T16:33:35.960Z,77.70
2018-03-03T16:36:03.596Z,79.30
2018-03-03T16:38:31.228Z,81.30
2018-03-03T16:40:59.592Z,84.90
2018-03-03T16:43:27.143Z,84.80
2018-03-03T16:45:56.254Z,86.40
2018-03-03T16:48:24.636Z,88.00
2018-03-03T16:50:52.969Z,88.50
2018-03-03T16:53:20.569Z,88.40
2018-03-03T16:55:48.956Z,90.60
2018-03-03T16:58:16.611Z,90.50
2018-03-03T17:00:44.997Z,91.00
2018-03-03T17:03:13.383Z,91.10
2018-03-03T17:05:40.970Z,91.10
2018-03-03T17:08:08.571Z,91.70
2018-03-03T17:10:36.151Z,92.50
2018-03-03T17:13:03.722Z,93.10
2018-03-03T17:15:31.330Z,93.90
2018-03-03T17:17:58.903Z,93.90
2018-03-03T17:20:27.229Z,94.60
2018-03-03T17:22:54.871Z,94.50
2018-03-03T17:25:23.199Z,94.70
2018-03-03T17:27:50.781Z,94.60
2018-03-03T17:30:19.163Z,94.80
2018-03-03T17:32:46.864Z,94.40
2018-03-03T17:35:14.543Z,94.90
2018-03-03T17:37:42.142Z,94.80
2018-03-03T17:40:10.491Z,94.90
2018-03-03T17:42:38.072Z,95.10
2018-03-03T17:45:05.734Z,94.30
2018-03-03T17:47:33.256Z,94.60
2018-03-03T17:50:00.818Z,94.00
2018-03-03T17:52:28.794Z,93.60
2018-03-03T17:54:56.420Z,93.50
2018-03-03T17:57:24.007Z,93.70
2018-03-03T17:59:51.615Z,93.70
2018-03-03T18:02:19.941Z,93.50
2018-03-03T18:04:47.520Z,93.50
2018-03-03T18:07:15.469Z,93.70
2018-03-03T18:09:43.049Z,93.50
2018-03-03T18:12:10.718Z,93.60
2018-03-03T18:14:39.112Z,93.90
2018-03-03T18:17:07.452Z,93.60
2018-03-03T18:19:35.937Z,93.50
2018-03-03T18:22:03.557Z,93.60
2018-03-03T18:24:35.498Z,93.60
2018-03-03T18:27:04.146Z,93.70
2018-03-03T18:29:31.712Z,93.70
2018-03-03T18:31:59.295Z,93.40
2018-03-03T18:34:27.674Z,93.60
2018-03-03T18:36:56.056Z,93.80
2018-03-03T18:39:23.680Z,93.90
2018-03-03T18:41:51.283Z,93.80
2018-03-03T18:44:18.883Z,93.40
2018-03-03T18:46:46.473Z,93.30
2018-03-03T18:49:14.852Z,93.60
2018-03-03T18:51:42.410Z,93.60
2018-03-03T18:54:09.981Z,93.90
2018-03-03T18:56:38.405Z,93.60
2018-03-03T18:59:06.058Z,93.70
2018-03-03T19:01:33.653Z,93.70
2018-03-03T19:04:01.707Z,93.30
2018-03-03T19:06:29.285Z,93.80
2018-03-03T19:08:56.862Z,93.80
2018-03-03T19:11:25.247Z,93.60
2018-03-03T19:13:53.578Z,93.50
2018-03-03T19:16:21.179Z,93.50
2018-03-03T19:18:49.520Z,93.80
2018-03-03T19:21:17.423Z,93.70
2018-03-03T19:23:45.774Z,93.80
2018-03-03T19:26:13.351Z,93.70
2018-03-03T19:28:41.736Z,94.10
2018-03-03T19:31:10.085Z,94.50
2018-03-03T19:33:37.647Z,94.50
2018-03-03T19:36:05.521Z,94.70
2018-03-03T19:38:33.108Z,94.90
2018-03-03T19:41:00.695Z,95.10
2018-03-03T19:43:28.339Z,95.90
2018-03-03T19:45:56.217Z,95.70
2018-03-03T19:48:23.875Z,95.90
2018-03-03T19:50:51.448Z,96.30
2018-03-03T19:53:19.441Z,96.50
2018-03-03T19:55:47.151Z,96.90
2018-03-03T19:58:14.729Z,97.50
2018-03-03T20:00:42.665Z,97.80
2018-03-03T20:03:11.036Z,98.70
2018-03-03T20:05:39.374Z,99.10
2018-03-03T20:08:07.313Z,99.00
2018-03-03T20:10:35.046Z,99.70
2018-03-03T20:13:03.374Z,99.90
2018-03-03T20:15:31.253Z,99.90
2018-03-03T20:17:58.830Z,99.90
2018-03-03T20:20:26.418Z,99.90
2018-03-03T20:22:54.021Z,99.90
2018-03-03T20:25:21.664Z,99.90
2018-03-03T20:27:49.249Z,99.90
2018-03-03T20:30:16.868Z,99.90
2018-03-03T20:32:44.450Z,99.90
2018-03-03T20:35:12.035Z,99.90
2018-03-03T20:37:39.644Z,99.90
2018-03-03T20:40:07.218Z,99.90
2018-03-03T20:42:34.825Z,99.90
2018-03-03T20:45:03.212Z,99.90
2018-03-03T20:47:31.563Z,99.90
2018-03-03T20:50:00.281Z,99.90
2018-03-03T20:52:28.676Z,99.90
2018-03-03T20:54:56.261Z,99.90
2018-03-03T20:57:24.125Z,99.90
2018-03-03T20:59:51.942Z,99.90
2018-03-03T21:02:20.326Z,99.90
2018-03-03T21:04:48.662Z,99.90
2018-03-03T21:07:16.294Z,99.90
2018-03-03T21:09:43.874Z,99.90
2018-03-03T21:12:31.417Z,99.90
2018-03-03T21:15:00.631Z,99.90
2018-03-03T21:17:28.999Z,99.90
2018-03-03T21:19:56.624Z,99.90
2018-03-03T21:22:24.221Z,99.90
2018-03-03T21:24:51.799Z,99.90
2018-03-03T21:27:20.484Z,99.90
2018-03-03T21:29:48.820Z,99.90
2018-03-03T21:32:16.412Z,99.90
2018-03-03T21:34:44.793Z,99.90
2018-03-03T21:37:13.156Z,99.90
2018-03-03T21:39:40.724Z,99.90
2018-03-03T21:42:08.407Z,99.90
2018-03-03T21:44:36.767Z,99.90
2018-03-03T21:47:05.150Z,99.90
2018-03-03T21:49:33.031Z,99.90
2018-03-03T21:52:00.604Z,99.90
2018-03-03T21:54:28.200Z,99.90
2018-03-03T21:56:55.855Z,99.90
2018-03-03T21:59:23.442Z,99.90
2018-03-03T22:01:51.817Z,99.90
2018-03-03T22:04:19.444Z,99.90
2018-03-03T22:06:47.049Z,99.90
2018-03-03T22:09:15.395Z,99.90
2018-03-03T22:11:43.007Z,99.90
2018-03-03T22:14:10.579Z,99.90
2018-03-03T22:16:39.100Z,99.90
2018-03-03T22:19:06.669Z,99.90
2018-03-03T22:21:34.291Z,99.90
2018-03-03T22:24:01.881Z,99.90
2018-03-03T22:26:29.477Z,99.90
2018-03-03T22:28:57.120Z,99.90
2018-03-03T22:31:25.472Z,99.90
2018-03-03T22:33:53.056Z,99.90
2018-03-03T22:36:21.746Z,99.90
2018-03-03T22:38:50.093Z,99.90
2018-03-03T22:41:17.679Z,99.90
2018-03-03T22:43:46.373Z,99.90
2018-03-03T22:46:14.723Z,99.90
2018-03-03T22:48:42.314Z,99.90
2018-03-03T22:51:10.703Z,99.90
2018-03-03T22:53:38.301Z,99.90
2018-03-03T22:56:05.925Z,99.90
2018-03-03T22:58:33.561Z,99.90
2018-03-03T23:01:01.978Z,99.90
2018-03-03T23:03:29.546Z,99.90
2018-03-03T23:05:57.464Z,99.90
2018-03-03T23:08:25.808Z,99.90
2018-03-03T23:10:53.377Z,99.90
2018-03-03T23:13:21.018Z,99.90
2018-03-03T23:15:48.596Z,99.90
2018-03-03T23:18:16.188Z,99.90
2018-03-03T23:20:43.796Z,99.90
2018-03-03T23:23:11.380Z,99.90
2018-03-03T23:25:38.965Z,99.90
2018-03-03T23:28:07.635Z,99.90
2018-03-03T23:30:35.972Z,99.90
2018-03-03T23:33:03.546Z,99.90
2018-03-03T23:35:31.188Z,99.90
2018-03-03T23:37:58.910Z,99.90
2018-03-03T23:40:27.245Z,99.90
2018-03-03T23:42:54.835Z,99.90
2018-03-03T23:45:23.183Z,99.90
2018-03-03T23:47:50.782Z,99.90
2018-03-03T23:50:19.166Z,99.90
2018-03-03T23:52:46.734Z,99.90
2018-03-03T23:55:14.308Z,99.90
2018-03-03T23:57:41.947Z,99.90
